createdAt,value
2022-11-01T00:01:54.208Z,78.23
2022-11-01T00:04:21.914Z,85.43
2022-11-01T00:06:49.643Z,82.53
2022-11-01T00:09:16.839Z,83.13
2022-11-01T00:11:43.715Z,65.23
2022-11-01T00:14:16.272Z,70.63
2022-11-01T00:16:43.711Z,63.70
2022-11-01T00:19:10.643Z,61.87
2022-11-01T00:21:37.703Z,66.90
2022-11-01T00:24:05.023Z,65.90
2022-11-01T00:26:32.107Z,61.27
2022-11-01T00:28:59.165Z,62.23
2022-11-01T00:31:26.390Z,55.80
2022-11-01T00:33:53.317Z,69.00
2022-11-01T00:36:20.393Z,57.03
2022-11-01T00:38:52.144Z,62.93
2022-11-01T00:41:20.939Z,59.97
2022-11-01T00:43:48.871Z,60.83
2022-11-01T00:46:16.478Z,61.87
2022-11-01T00:48:43.359Z,62.17
2022-11-01T00:51:10.269Z,66.97
2022-11-01T00:53:37.209Z,65.33
2022-11-01T00:56:06.391Z,57.57
2022-11-01T00:58:33.985Z,75.53
2022-11-01T01:01:01.262Z,64.17
2022-11-01T01:03:28.170Z,65.73
2022-11-01T01:05:55.133Z,61.27
2022-11-01T01:08:22.734Z,66.77
2022-11-01T01:10:50.054Z,61.50
2022-11-01T01:13:17.215Z,62.80
2022-11-01T01:15:44.380Z,60.27
2022-11-01T01:18:11.514Z,57.67
2022-11-01T01:20:38.490Z,55.27
2022-11-01T01:23:05.582Z,86.23
2022-11-01T01:25:33.084Z,67.53
2022-11-01T01:28:00.268Z,67.47
2022-11-01T01:30:27.472Z,63.20
2022-11-01T01:32:54.330Z,67.60
2022-11-01T01:35:21.218Z,62.90
2022-11-01T01:37:48.103Z,63.73
2022-11-01T01:40:15.131Z,68.93
2022-11-01T01:42:43.006Z,72.30
2022-11-01T01:45:40.063Z,58.90
2022-11-01T01:48:26.475Z,56.87
2022-11-01T01:51:03.181Z,61.83
2022-11-01T01:53:35.251Z,68.33
2022-11-01T01:56:21.214Z,72.47
2022-11-01T01:58:56.953Z,58.03
2022-11-01T02:01:24.011Z,55.80
2022-11-01T02:03:51.618Z,59.47
2022-11-01T02:06:25.602Z,54.87
2022-11-01T02:08:58.363Z,58.60
2022-11-01T02:11:25.265Z,54.37
2022-11-01T02:13:52.783Z,55.00
2022-11-01T02:16:38.457Z,65.20
2022-11-01T02:19:27.278Z,58.60
2022-11-01T02:22:35.851Z,60.50
2022-11-01T02:25:26.089Z,55.03
2022-11-01T02:28:37.847Z,53.77
2022-11-01T02:31:40.727Z,56.87
2022-11-01T02:34:19.158Z,56.77
2022-11-01T02:36:53.731Z,54.87
2022-11-01T02:39:23.932Z,58.83
2022-11-01T02:42:21.721Z,64.43
2022-11-01T02:45:31.498Z,62.60
2022-11-01T02:48:03.475Z,61.73
2022-11-01T02:50:42.572Z,61.03
2022-11-01T02:53:10.318Z,64.90
2022-11-01T02:55:37.249Z,63.13
2022-11-01T02:58:26.167Z,66.60
2022-11-01T03:00:53.149Z,56.53
2022-11-01T03:03:35.409Z,65.00
2022-11-01T03:06:05.014Z,58.80
2022-11-01T03:08:38.951Z,59.87
2022-11-01T03:11:18.383Z,61.07
2022-11-01T03:14:17.893Z,60.93
2022-11-01T03:17:00.504Z,60.03
2022-11-01T03:19:48.672Z,64.23
2022-11-01T03:22:37.598Z,63.13
2022-11-01T03:25:39.000Z,59.87
2022-11-01T03:28:33.701Z,62.83
2022-11-01T03:31:11.134Z,63.93
2022-11-01T03:33:43.354Z,67.63
2022-11-01T03:36:16.081Z,65.57
2022-11-01T03:38:54.210Z,65.67
2022-11-01T03:41:23.534Z,63.17
2022-11-01T03:43:50.837Z,66.70
2022-11-01T03:46:18.037Z,61.33
2022-11-01T03:48:44.911Z,65.77
2022-11-01T03:51:11.859Z,65.33
2022-11-01T03:53:38.731Z,67.50
2022-11-01T03:56:05.798Z,67.17
2022-11-01T03:58:42.021Z,66.93
2022-11-01T04:01:11.361Z,58.73
2022-11-01T04:03:38.764Z,65.00
2022-11-01T04:06:06.557Z,70.70
2022-11-01T04:08:34.025Z,67.00
2022-11-01T04:11:01.031Z,69.07
2022-11-01T04:13:28.008Z,65.30
2022-11-01T04:16:13.396Z,62.10
2022-11-01T04:18:58.970Z,65.83
2022-11-01T04:21:26.731Z,66.17
2022-11-01T04:23:53.632Z,69.13
2022-11-01T04:26:23.256Z,62.70
2022-11-01T04:28:59.402Z,60.67
2022-11-01T04:31:36.104Z,59.93
2022-11-01T04:34:05.332Z,64.70
2022-11-01T04:36:32.469Z,68.53
2022-11-01T04:38:59.446Z,64.10
2022-11-01T04:41:28.589Z,68.60
2022-11-01T04:43:58.670Z,68.10
2022-11-01T04:46:27.875Z,77.13
2022-11-01T04:48:54.750Z,71.27
2022-11-01T04:51:21.667Z,75.57
2022-11-01T04:53:48.529Z,68.70
2022-11-01T04:56:15.416Z,74.97
2022-11-01T04:58:45.107Z,70.40
2022-11-01T05:01:14.426Z,83.13
2022-11-01T05:03:41.702Z,74.47
2022-11-01T05:06:08.686Z,74.63
2022-11-01T05:08:35.578Z,75.50
2022-11-01T05:11:02.505Z,85.03
2022-11-01T05:13:30.181Z,71.83
2022-11-01T05:16:18.336Z,73.00
2022-11-01T05:18:44.018Z,78.90
2022-11-01T05:21:11.745Z,74.20
2022-11-01T05:23:38.731Z,78.37
2022-11-01T05:26:05.854Z,72.60
2022-11-01T05:28:32.728Z,78.10
2022-11-01T05:30:59.654Z,76.87
2022-11-01T05:33:26.523Z,76.17
2022-11-01T05:35:53.422Z,93.93
2022-11-01T05:38:20.364Z,79.47
2022-11-01T05:40:47.432Z,69.63
2022-11-01T05:43:14.830Z,74.87
2022-11-01T05:45:41.909Z,79.97
2022-11-01T05:48:09.289Z,69.30
2022-11-01T05:50:36.248Z,79.23
2022-11-01T05:53:07.452Z,78.17
2022-11-01T05:55:35.560Z,78.30
2022-11-01T05:58:02.582Z,88.17
2022-11-01T06:00:29.499Z,75.53
2022-11-01T06:03:00.090Z,108.20
2022-11-01T06:05:28.168Z,74.70
2022-11-01T06:07:56.116Z,84.60
2022-11-01T06:10:23.089Z,79.67
2022-11-01T06:12:50.055Z,85.70
2022-11-01T06:15:17.048Z,95.53
2022-11-01T06:17:43.913Z,77.30
2022-11-01T06:20:11.743Z,73.77
2022-11-01T06:22:38.933Z,87.70
2022-11-01T06:25:06.869Z,78.10
2022-11-01T06:27:33.753Z,71.67
2022-11-01T06:30:00.656Z,83.73
2022-11-01T06:32:27.528Z,72.63
2022-11-01T06:34:54.560Z,74.07
2022-11-01T06:37:21.511Z,79.70
2022-11-01T06:39:48.387Z,91.20
2022-11-01T06:42:15.260Z,82.73
2022-11-01T06:44:42.138Z,88.80
2022-11-01T06:47:09.060Z,83.20
2022-11-01T06:49:35.950Z,86.37
2022-11-01T06:52:03.349Z,91.23
2022-11-01T06:54:30.303Z,93.97
2022-11-01T06:56:57.514Z,85.73
2022-11-01T06:59:24.971Z,75.47
2022-11-01T07:01:54.923Z,86.40
2022-11-01T07:04:22.130Z,81.50
2022-11-01T07:06:49.323Z,85.47
2022-11-01T07:09:16.206Z,89.17
2022-11-01T07:11:43.060Z,91.60
2022-11-01T07:14:10.079Z,89.50
2022-11-01T07:16:38.866Z,87.93
2022-11-01T07:19:05.868Z,78.37
2022-11-01T07:21:32.753Z,98.00
2022-11-01T07:23:59.624Z,84.17
2022-11-01T07:26:26.514Z,85.73
2022-11-01T07:28:53.466Z,81.00
2022-11-01T07:31:20.339Z,86.23
2022-11-01T07:33:47.392Z,75.10
2022-11-01T07:36:14.290Z,92.20
2022-11-01T07:38:41.188Z,76.27
2022-11-01T07:41:08.087Z,84.00
2022-11-01T07:43:35.818Z,85.93
2022-11-01T07:46:05.598Z,76.23
2022-11-01T07:48:32.741Z,79.60
2022-11-01T07:50:59.870Z,81.83
2022-11-01T07:53:26.769Z,76.60
2022-11-01T07:55:53.643Z,76.47
2022-11-01T07:58:20.558Z,76.60
2022-11-01T08:00:47.447Z,79.70
2022-11-01T08:03:16.899Z,77.80
2022-11-01T08:05:45.764Z,72.03
2022-11-01T08:08:14.510Z,65.43
2022-11-01T08:10:42.407Z,77.27
2022-11-01T08:13:19.605Z,76.20
2022-11-01T08:15:47.907Z,66.90
2022-11-01T08:18:16.392Z,70.53
2022-11-01T08:20:43.618Z,68.50
2022-11-01T08:23:11.717Z,71.27
2022-11-01T08:25:39.244Z,68.70
2022-11-01T08:28:14.057Z,66.97
2022-11-01T08:30:42.518Z,68.40
2022-11-01T08:33:10.125Z,68.63
2022-11-01T08:35:37.020Z,66.00
2022-11-01T08:38:04.654Z,63.70
2022-11-01T08:40:32.892Z,62.93
2022-11-01T08:42:59.987Z,64.70
2022-11-01T08:45:28.175Z,64.13
2022-11-01T08:48:03.606Z,60.50
2022-11-01T08:50:31.608Z,60.37
2022-11-01T08:52:58.492Z,66.10
2022-11-01T08:55:25.739Z,55.93
2022-11-01T08:57:52.703Z,59.60
2022-11-01T09:00:20.135Z,58.13
2022-11-01T09:02:47.001Z,54.03
2022-11-01T09:05:13.913Z,52.07
2022-11-01T09:07:40.828Z,63.37
2022-11-01T09:10:08.631Z,66.00
2022-11-01T09:12:36.190Z,51.80
2022-11-01T09:15:04.725Z,61.07
2022-11-01T09:17:31.883Z,50.50
2022-11-01T09:19:58.801Z,55.67
2022-11-01T09:22:26.448Z,52.13
2022-11-01T09:24:55.464Z,52.50
2022-11-01T09:27:22.354Z,71.13
2022-11-01T09:29:51.859Z,71.70
2022-11-01T09:32:19.125Z,59.20
2022-11-01T09:34:46.759Z,64.07
2022-11-01T09:37:13.628Z,59.17
2022-11-01T09:39:40.506Z,66.30
2022-11-01T09:42:18.727Z,53.97
2022-11-01T09:44:48.285Z,60.57
2022-11-01T09:47:25.802Z,63.97
2022-11-01T09:50:16.514Z,57.20
2022-11-01T09:52:43.527Z,61.30
2022-11-01T09:55:16.667Z,53.70
2022-11-01T09:58:07.711Z,59.30
2022-11-01T10:00:51.138Z,53.17
2022-11-01T10:03:46.932Z,58.40
2022-11-01T10:06:23.765Z,56.80
2022-11-01T10:09:41.889Z,58.23
2022-11-01T10:12:45.790Z,57.23
2022-11-01T10:15:52.359Z,68.57
2022-11-01T10:18:30.497Z,55.13
2022-11-01T10:21:01.562Z,48.53
2022-11-01T10:23:47.224Z,54.90
2022-11-01T10:26:20.309Z,68.77
2022-11-01T10:28:59.971Z,55.47
2022-11-01T10:31:28.886Z,58.77
2022-11-01T10:34:04.533Z,53.27
2022-11-01T10:39:55.561Z,58.70
2022-11-01T10:42:23.936Z,60.90
2022-11-01T10:44:55.916Z,54.10
2022-11-01T10:47:24.997Z,62.47
2022-11-01T10:50:11.979Z,53.43
2022-11-01T10:52:49.311Z,60.73
2022-11-01T10:55:24.600Z,57.03
2022-11-01T10:58:19.179Z,55.63
2022-11-01T11:00:47.051Z,61.03
2022-11-01T11:03:24.559Z,57.10
2022-11-01T11:05:54.343Z,54.40
2022-11-01T11:08:23.969Z,51.23
2022-11-01T11:10:51.842Z,50.07
2022-11-01T11:13:22.995Z,52.20
2022-11-01T11:16:04.304Z,53.30
2022-11-01T11:18:38.758Z,51.43
2022-11-01T11:21:13.147Z,51.30
2022-11-01T11:23:43.663Z,45.40
2022-11-01T11:26:16.742Z,57.97
2022-11-01T11:28:50.004Z,53.97
2022-11-01T11:31:28.405Z,45.70
2022-11-01T11:33:59.927Z,41.80
2022-11-01T11:36:35.136Z,49.10
2022-11-01T11:39:03.271Z,49.67
2022-11-01T11:41:36.609Z,54.37
2022-11-01T11:44:04.276Z,48.90
2022-11-01T11:46:31.147Z,41.70
2022-11-01T11:49:04.293Z,49.33
2022-11-01T11:51:38.960Z,44.53
2022-11-01T11:54:24.863Z,48.50
2022-11-01T11:57:07.072Z,49.93
2022-11-01T11:59:35.088Z,42.33
2022-11-01T12:02:05.996Z,47.07
2022-11-01T12:04:52.718Z,38.47
2022-11-01T12:07:49.024Z,41.30
2022-11-01T12:10:39.702Z,40.97
2022-11-01T12:13:42.819Z,46.40
2022-11-01T12:16:24.688Z,38.03
2022-11-01T12:19:00.533Z,37.40
2022-11-01T12:21:40.048Z,45.73
2022-11-01T12:24:47.309Z,40.30
2022-11-01T12:27:20.557Z,37.73
2022-11-01T12:29:55.377Z,45.53
2022-11-01T12:32:56.949Z,37.43
2022-11-01T12:35:32.944Z,35.73
2022-11-01T12:38:09.659Z,37.83
2022-11-01T12:40:38.440Z,34.30
2022-11-01T12:43:44.921Z,41.23
2022-11-01T12:46:39.477Z,34.13
2022-11-01T12:49:55.706Z,35.50
2022-11-01T12:52:36.811Z,34.67
2022-11-01T12:55:21.815Z,54.47
2022-11-01T12:57:48.971Z,33.13
2022-11-01T13:00:17.713Z,32.43
2022-11-01T13:03:09.355Z,32.43
2022-11-01T13:06:00.588Z,44.23
2022-11-01T13:09:11.877Z,34.37
2022-11-01T13:11:59.654Z,30.03
2022-11-01T13:14:37.215Z,29.47
2022-11-01T13:17:28.250Z,41.00
2022-11-01T13:20:25.060Z,32.43
2022-11-01T13:23:26.742Z,28.80
2022-11-01T13:26:02.874Z,28.37
2022-11-01T13:28:53.486Z,31.07
2022-11-01T13:31:40.526Z,32.30
2022-11-01T13:34:16.210Z,30.53
2022-11-01T13:36:53.629Z,30.20
2022-11-01T13:39:44.201Z,32.87
2022-11-01T13:42:17.490Z,31.57
2022-11-01T13:44:53.149Z,28.37
2022-11-01T13:47:51.999Z,29.13
2022-11-01T13:51:08.219Z,27.80
2022-11-01T13:53:49.454Z,26.80
2022-11-01T13:56:54.303Z,30.87
2022-11-01T13:59:44.741Z,29.87
2022-11-01T14:02:24.407Z,26.37
2022-11-01T14:05:02.278Z,27.83
2022-11-01T14:07:45.860Z,25.37
2022-11-01T14:10:19.069Z,35.00
2022-11-01T14:13:10.775Z,26.67
2022-11-01T14:15:59.223Z,28.30
2022-11-01T14:18:26.693Z,24.70
2022-11-01T14:20:57.337Z,21.23
2022-11-01T14:23:29.993Z,23.13
2022-11-01T14:26:18.543Z,25.53
2022-11-01T14:28:48.219Z,30.93
2022-11-01T14:31:19.293Z,21.47
2022-11-01T14:33:48.447Z,30.57
2022-11-01T14:36:19.528Z,19.27
2022-11-01T14:38:56.235Z,18.77
2022-11-01T14:41:26.465Z,28.87
2022-11-01T14:44:31.251Z,22.53
2022-11-01T14:47:03.353Z,31.93
2022-11-01T14:49:40.541Z,20.50
2022-11-01T14:52:31.120Z,19.70
2022-11-01T14:55:25.176Z,21.77
2022-11-01T14:58:08.803Z,18.27
2022-11-01T15:00:35.898Z,22.30
2022-11-01T15:03:02.885Z,21.70
2022-11-01T15:05:29.905Z,24.17
2022-11-01T15:07:59.385Z,22.00
2022-11-01T15:10:27.694Z,23.50
2022-11-01T15:12:59.412Z,20.33
2022-11-01T15:15:35.628Z,18.33
2022-11-01T15:18:17.957Z,22.60
2022-11-01T15:20:51.626Z,21.37
2022-11-01T15:23:24.493Z,18.57
2022-11-01T15:25:53.347Z,16.83
2022-11-01T15:28:29.425Z,19.97
2022-11-01T15:30:59.716Z,26.87
2022-11-01T15:33:30.932Z,23.47
2022-11-01T15:36:22.049Z,17.10
2022-11-01T15:38:56.365Z,20.90
2022-11-01T15:41:30.743Z,23.50
2022-11-01T15:44:06.085Z,20.83
2022-11-01T15:46:39.509Z,22.50
2022-11-01T15:49:24.634Z,27.73
2022-11-01T15:52:00.314Z,19.30
2022-11-01T15:54:47.603Z,21.93
2022-11-01T15:57:44.293Z,17.37
2022-11-01T16:00:23.463Z,31.63
2022-11-01T16:03:09.046Z,18.17
2022-11-01T16:05:42.747Z,21.17
2022-11-01T16:08:20.953Z,21.73
2022-11-01T16:10:47.855Z,24.80
2022-11-01T16:13:19.339Z,22.10
2022-11-01T16:16:07.521Z,24.17
2022-11-01T16:18:41.621Z,24.23
2022-11-01T16:21:20.610Z,34.87
2022-11-01T16:24:11.061Z,18.50
2022-11-01T16:27:00.063Z,24.63
2022-11-01T16:29:49.440Z,21.40
2022-11-01T16:32:22.885Z,29.10
2022-11-01T16:34:50.806Z,20.10
2022-11-01T16:37:29.626Z,19.03
2022-11-01T16:39:58.982Z,23.70
2022-11-01T16:42:25.868Z,28.43
2022-11-01T16:44:56.309Z,18.40
2022-11-01T16:47:23.412Z,21.97
2022-11-01T16:49:54.930Z,20.37
2022-11-01T16:52:22.489Z,27.27
2022-11-01T16:54:53.457Z,20.67
2022-11-01T16:57:29.954Z,29.00
2022-11-01T16:59:57.310Z,21.57
2022-11-01T17:02:29.766Z,23.87
2022-11-01T17:05:06.566Z,17.30
2022-11-01T17:07:33.549Z,24.60
2022-11-01T17:10:00.432Z,17.47
2022-11-01T17:12:27.359Z,24.40
2022-11-01T17:14:55.986Z,21.00
2022-11-01T17:17:24.799Z,19.93
2022-11-01T17:19:59.887Z,24.10
2022-11-01T17:22:36.522Z,23.80
2022-11-01T17:25:05.003Z,18.90
2022-11-01T17:27:31.902Z,15.70
2022-11-01T17:29:58.776Z,14.90
2022-11-01T17:32:25.670Z,21.50
2022-11-01T17:34:53.599Z,19.17
2022-11-01T17:37:22.180Z,24.83
2022-11-01T17:39:49.041Z,15.70
2022-11-01T17:42:15.913Z,23.63
2022-11-01T17:44:42.799Z,15.00
2022-11-01T17:47:14.721Z,16.73
2022-11-01T17:49:41.621Z,16.50
2022-11-01T17:52:08.531Z,15.80
2022-11-01T17:54:35.425Z,16.23
2022-11-01T17:57:02.296Z,21.57
2022-11-01T17:59:29.190Z,14.97
2022-11-01T18:01:56.107Z,14.60
2022-11-01T18:04:23.201Z,25.17
2022-11-01T18:06:50.466Z,15.77
2022-11-01T18:09:24.112Z,15.67
2022-11-01T18:12:04.541Z,18.73
2022-11-01T18:14:50.165Z,23.70
2022-11-01T18:17:51.607Z,13.40
2022-11-01T18:20:53.946Z,14.30
2022-11-01T18:23:23.066Z,16.17
2022-11-01T18:25:51.324Z,18.87
2022-11-01T18:28:30.103Z,16.80
2022-11-01T18:31:00.543Z,14.90
2022-11-01T18:33:55.756Z,18.23
2022-11-01T18:36:32.817Z,18.43
2022-11-01T18:39:13.003Z,17.50
2022-11-01T18:41:40.025Z,23.73
2022-11-01T18:44:12.007Z,23.30
2022-11-01T18:46:51.748Z,18.43
2022-11-01T18:49:18.642Z,25.73
2022-11-01T18:51:46.475Z,21.70
2022-11-01T18:54:24.156Z,18.33
2022-11-01T18:56:57.659Z,22.53
2022-11-01T18:59:35.518Z,22.27
2022-11-01T19:02:11.428Z,20.00
2022-11-01T19:04:42.363Z,19.67
2022-11-01T19:07:22.731Z,19.60
2022-11-01T19:09:53.543Z,23.83
2022-11-01T19:12:43.133Z,19.77
2022-11-01T19:15:24.819Z,20.73
2022-11-01T19:18:02.763Z,22.93
2022-11-01T19:20:39.655Z,19.07
2022-11-01T19:23:33.381Z,29.80
2022-11-01T19:26:00.255Z,29.30
2022-11-01T19:28:34.994Z,15.77
2022-11-01T19:31:25.953Z,18.20
2022-11-01T19:33:57.467Z,15.13
2022-11-01T19:39:30.597Z,24.13
2022-11-01T19:42:02.489Z,24.40
2022-11-01T19:44:30.838Z,24.73
2022-11-01T19:47:37.160Z,21.50
2022-11-01T19:50:22.957Z,22.23
2022-11-01T19:52:52.850Z,22.73
2022-11-01T19:55:43.742Z,23.43
2022-11-01T19:58:22.566Z,25.20
2022-11-01T20:00:50.121Z,27.13
2022-11-01T20:03:27.246Z,21.67
2022-11-01T20:05:54.658Z,22.03
2022-11-01T20:08:33.550Z,21.37
2022-11-01T20:11:00.537Z,26.37
2022-11-01T20:13:27.531Z,29.77
2022-11-01T20:15:54.402Z,27.83
2022-11-01T20:18:21.281Z,24.33
2022-11-01T20:20:48.165Z,25.27
2022-11-01T20:23:30.306Z,25.53
2022-11-01T20:25:58.230Z,17.40
2022-11-01T20:28:25.168Z,19.13
2022-11-01T20:30:52.124Z,20.57
2022-11-01T20:33:19.025Z,19.97
2022-11-01T20:35:45.967Z,20.70
2022-11-01T20:38:12.930Z,16.47
2022-11-01T20:40:39.956Z,18.20
2022-11-01T20:43:07.227Z,24.90
2022-11-01T20:45:34.948Z,20.87
2022-11-01T20:48:02.735Z,16.77
2022-11-01T20:50:30.045Z,14.10
2022-11-01T20:52:56.930Z,20.27
2022-11-01T20:55:23.803Z,21.73
2022-11-01T20:57:51.686Z,23.70
2022-11-01T21:00:18.872Z,21.20
2022-11-01T21:02:46.943Z,20.90
2022-11-01T21:05:30.007Z,23.27
2022-11-01T21:08:23.948Z,22.83
2022-11-01T21:10:57.464Z,22.83
2022-11-01T21:13:32.218Z,18.53
2022-11-01T21:16:01.457Z,19.63
2022-11-01T21:18:30.930Z,25.80
2022-11-01T21:20:59.071Z,23.03
2022-11-01T21:23:31.488Z,28.07
2022-11-01T21:26:01.856Z,22.93
2022-11-01T21:28:39.902Z,24.53
2022-11-01T21:31:32.490Z,25.47
2022-11-01T21:34:11.819Z,20.70
2022-11-01T21:36:49.249Z,17.17
2022-11-01T21:39:30.848Z,20.43
2022-11-01T21:42:01.754Z,19.33
2022-11-01T21:44:45.413Z,18.30
2022-11-01T21:47:21.766Z,20.27
2022-11-01T21:49:49.566Z,20.13
2022-11-01T21:52:19.232Z,20.10
2022-11-01T21:54:46.652Z,28.33
2022-11-01T21:57:14.459Z,33.00
2022-11-01T21:59:41.942Z,21.80
2022-11-01T22:02:13.010Z,18.30
2022-11-01T22:04:40.345Z,30.40
2022-11-01T22:07:09.049Z,25.50
2022-11-01T22:09:36.661Z,21.40
2022-11-01T22:12:04.192Z,22.13
2022-11-01T22:14:32.008Z,21.37
2022-11-01T22:17:00.274Z,16.97
2022-11-01T22:19:27.297Z,28.60
2022-11-01T22:21:54.187Z,26.70
2022-11-01T22:24:21.087Z,27.73
2022-11-01T22:26:47.944Z,17.50
2022-11-01T22:29:14.826Z,22.10
2022-11-01T22:31:42.236Z,15.97
2022-11-01T22:34:09.166Z,23.33
2022-11-01T22:36:37.740Z,17.90
2022-11-01T22:39:22.810Z,21.70
2022-11-01T22:41:49.786Z,33.43
2022-11-01T22:44:26.880Z,24.87
2022-11-01T22:47:00.023Z,19.30
2022-11-01T22:49:40.739Z,22.07
2022-11-01T22:52:34.185Z,20.70
2022-11-01T22:55:19.276Z,23.33
2022-11-01T22:58:02.218Z,19.20
2022-11-01T23:00:36.026Z,16.20
2022-11-01T23:03:20.828Z,20.83
2022-11-01T23:05:52.006Z,19.43
2022-11-01T23:08:25.502Z,20.80
2022-11-01T23:10:52.483Z,19.93
2022-11-01T23:13:45.530Z,16.30
2022-11-01T23:16:30.141Z,17.50
2022-11-01T23:19:01.128Z,17.20
2022-11-01T23:21:28.374Z,16.60
2022-11-01T23:23:55.688Z,19.20
2022-11-01T23:26:23.323Z,24.80
2022-11-01T23:28:53.262Z,18.07
2022-11-01T23:31:21.728Z,17.67
2022-11-01T23:33:50.193Z,18.53
2022-11-01T23:36:26.161Z,17.83
2022-11-01T23:38:55.062Z,22.07
2022-11-01T23:41:32.938Z,17.70
2022-11-01T23:44:04.515Z,17.87
2022-11-01T23:46:31.381Z,19.60
2022-11-01T23:49:30.055Z,16.90
2022-11-01T23:51:57.661Z,16.30
2022-11-01T23:54:34.519Z,18.20
2022-11-01T23:57:01.738Z,16.33
2022-11-01T23:59:28.812Z,14.67
